Time;durP1;ratioP1;P1;durP2;ratioP2;P2;SDS_P1;SDS_P2;PMS_P1;PMS_P2;Temp;Humidity;BMP_temperature;BMP_pressure;BME280_temperature;BME280_humidity;BME280_pressure;Samples;Min_cycle;Max_cycle;Signal;HPM_P1;HPM_P2
2022/01/08 00:01:38;;;;;;;1999.90;407.57;;;2.10;99.90;;;;;;5995747;24;20412;-79
2022/01/08 00:04:07;;;;;;;1999.90;499.40;;;2.20;99.90;;;;;;5986215;24;20655;-79
2022/01/08 00:06:36;;;;;;;1999.90;326.87;;;2.20;99.90;;;;;;5986127;24;20498;-79
2022/01/08 00:09:05;;;;;;;1999.90;368.50;;;2.10;99.90;;;;;;5986334;24;20444;-79
2022/01/08 00:11:41;;;;;;;1999.90;319.97;;;2.10;99.90;;;;;;5985218;24;20896;-79
2022/01/08 01:01:29;;;;;;;1805.57;218.70;;;2.10;99.90;;;;;;5053322;28;20442;-80
2022/01/08 01:04:13;;;;;;;1999.90;338.33;;;2.10;99.90;;;;;;5052578;27;20495;-79
2022/01/08 01:06:51;;;;;;;1999.90;599.10;;;2.10;99.90;;;;;;5130255;28;20467;-80
2022/01/08 01:09:19;;;;;;;1999.90;364.53;;;2.10;99.90;;;;;;5139608;28;20496;-81
2022/01/08 01:11:57;;;;;;;1976.60;313.80;;;2.10;99.90;;;;;;5136114;28;20930;-81
2022/01/08 01:25:37;;;;;;;1935.70;260.93;;;2.10;99.90;;;;;;5079480;28;20510;-80
2022/01/08 01:28:41;;;;;;;1999.90;540.57;;;2.10;99.90;;;;;;5078070;28;20446;-79
2022/01/08 01:42:37;;;;;;;1999.90;381.33;;;2.10;99.90;;;;;;5116705;28;20499;-79
2022/01/08 01:47:59;;;;;;;1999.90;390.73;;;2.10;99.90;;;;;;5117083;28;20630;-80
2022/01/08 01:50:27;;;;;;;1999.90;374.37;;;2.10;99.90;;;;;;5116984;28;20537;-80
2022/01/08 01:52:56;;;;;;;1999.90;629.10;;;2.10;99.90;;;;;;5133081;28;20552;-80
2022/01/08 01:55:26;;;;;;;1999.90;718.00;;;2.10;99.90;;;;;;5116280;28;20461;-80
2022/01/08 01:57:55;;;;;;;1999.90;720.40;;;2.20;99.90;;;;;;5116857;28;20477;-79
2022/01/08 02:00:26;;;;;;;1999.90;449.03;;;2.20;99.90;;;;;;5123466;28;20897;-79
2022/01/08 02:03:44;;;;;;;1999.90;351.23;;;2.20;99.90;;;;;;5011610;28;21013;-79
2022/01/08 02:23:10;;;;;;;1999.90;481.33;;;2.20;99.90;;;;;;4872448;29;20495;-80
2022/01/08 02:25:44;;;;;;;1999.90;473.03;;;2.20;99.90;;;;;;4920369;28;20548;-79
2022/01/08 02:28:16;;;;;;;1999.90;675.37;;;2.20;99.90;;;;;;5092180;28;20445;-80
2022/01/08 02:31:00;;;;;;;1999.90;602.57;;;2.20;99.90;;;;;;5103824;28;20486;-79
2022/01/08 02:34:38;;;;;;;;;;;;;;;;;;;;;
2022/01/08 02:51:21;;;;;;;1963.70;330.30;;;2.10;99.90;;;;;;4953825;28;20453;-79
2022/01/08 02:53:56;;;;;;;1999.90;378.77;;;2.10;99.90;;;;;;5005486;28;20470;-80
2022/01/08 03:03:42;;;;;;;1505.57;240.67;;;2.00;99.90;;;;;;4911719;29;20955;-79
2022/01/08 03:06:17;;;;;;;1347.67;175.60;;;2.00;99.90;;;;;;4941355;29;20481;-79
2022/01/08 03:31:45;;;;;;;1999.90;377.37;;;1.90;99.90;;;;;;4890538;28;20448;-80
2022/01/08 03:34:14;;;;;;;1999.90;299.57;;;1.90;99.90;;;;;;5082521;28;20219;-80
2022/01/08 03:36:45;;;;;;;1999.90;362.67;;;1.90;99.90;;;;;;5115754;28;20453;-80
2022/01/08 03:39:18;;;;;;;1999.90;399.03;;;1.80;99.90;;;;;;5123695;28;20539;-79
2022/01/08 03:41:52;;;;;;;1999.90;410.13;;;1.80;99.90;;;;;;5125151;27;20424;-79
2022/01/08 03:44:26;;;;;;;1999.90;397.43;;;1.80;99.90;;;;;;5116005;28;20548;-79
2022/01/08 03:47:22;;;;;;;1999.90;450.47;;;1.80;99.90;;;;;;5110515;28;20463;-80
2022/01/08 03:49:48;;;;;;;1999.90;328.80;;;1.80;99.90;;;;;;5117397;28;20451;-80
2022/01/08 03:52:19;;;;;;;1999.90;328.67;;;1.80;99.90;;;;;;5117374;28;20545;-79
2022/01/08 03:54:47;;;;;;;1999.90;332.20;;;1.80;99.90;;;;;;5102352;28;20469;-79
2022/01/08 03:57:17;;;;;;;1999.90;436.77;;;1.80;99.90;;;;;;5102374;28;20551;-79
2022/01/08 03:59:51;;;;;;;1999.90;403.30;;;1.80;99.90;;;;;;5103611;28;20436;-80
2022/01/08 04:02:24;;;;;;;1999.90;417.83;;;1.80;99.90;;;;;;5103786;28;20488;-79
2022/01/08 04:04:55;;;;;;;1999.90;432.60;;;1.80;99.90;;;;;;5110159;28;20506;-79
2022/01/08 04:07:29;;;;;;;1953.47;342.53;;;1.80;99.90;;;;;;5122420;28;20489;-79
2022/01/08 04:09:57;;;;;;;1999.90;446.40;;;1.80;99.90;;;;;;5124273;28;20447;-80
2022/01/08 04:12:35;;;;;;;1999.90;366.93;;;1.80;99.90;;;;;;5121250;28;20452;-80
2022/01/08 04:15:08;;;;;;;1999.90;382.93;;;1.80;99.90;;;;;;5114627;28;20435;-80
2022/01/08 04:17:44;;;;;;;1999.90;471.83;;;1.80;99.90;;;;;;5123063;28;20447;-79
2022/01/08 04:31:29;;;;;;;1070.87;167.27;;;1.70;99.90;;;;;;4893123;29;20456;-79
2022/01/08 04:34:03;;;;;;;1327.47;233.63;;;1.70;99.90;;;;;;4944044;29;21050;-79
2022/01/08 04:51:19;;;;;;;1088.37;155.03;;;1.60;99.90;;;;;;4877114;29;20559;-80
2022/01/08 04:53:48;;;;;;;1971.90;304.33;;;1.60;99.90;;;;;;4957769;28;20558;-81
2022/01/08 04:56:18;;;;;;;1999.90;334.97;;;1.60;99.90;;;;;;5094223;28;20452;-80
2022/01/08 04:58:46;;;;;;;1923.23;399.37;;;1.60;99.90;;;;;;5121332;28;20455;-80
2022/01/08 05:08:40;;;;;;;1971.87;296.20;;;1.70;99.90;;;;;;4850206;29;20480;-80
2022/01/08 05:15:40;;;;;;;1653.63;276.77;;;1.70;99.90;;;;;;4944282;28;20478;-80
2022/01/08 05:18:12;;;;;;;1848.70;236.07;;;1.80;99.90;;;;;;4934442;28;20454;-80
2022/01/08 05:21:04;;;;;;;;;;;;;;;;;;;;;
2022/01/08 05:35:35;;;;;;;1999.90;666.63;;;1.90;99.90;;;;;;4897706;29;20425;-79
2022/01/08 05:41:00;;;;;;;1999.90;352.30;;;1.90;99.90;;;;;;4957649;28;20537;-82
2022/01/08 05:43:38;;;;;;;1999.90;721.30;;;1.90;99.90;;;;;;5103971;28;20483;-80
2022/01/08 05:46:11;;;;;;;1999.90;502.10;;;1.90;99.90;;;;;;5104070;28;20448;-80
2022/01/08 05:48:41;;;;;;;1999.90;537.80;;;1.90;99.90;;;;;;5103572;28;20440;-79
2022/01/08 05:51:14;;;;;;;1999.90;733.83;;;1.90;99.90;;;;;;5105181;28;21042;-79
2022/01/08 06:21:08;;;;;;;1999.90;419.47;;;1.90;99.90;;;;;;4867672;29;20806;-79
2022/01/08 06:23:36;;;;;;;1972.93;414.03;;;1.90;99.90;;;;;;4909855;29;20473;-80
2022/01/08 06:26:06;;;;;;;1999.90;434.70;;;1.90;99.90;;;;;;4924905;29;20457;-79
2022/01/08 06:28:36;;;;;;;1999.90;498.17;;;1.90;99.90;;;;;;4909050;29;20465;-79
2022/01/08 06:32:21;;;;;;;;;;;;;;;;;;;;;
2022/01/08 07:19:21;;;;;;;352.47;74.83;;;1.80;99.90;;;;;;5676141;22;15212371;-79
2022/01/08 07:21:53;;;;;;;1999.90;263.40;;;2.20;99.90;;;;;;6279600;22;20252;-79
2022/01/08 07:24:21;;;;;;;1954.13;270.20;;;2.10;99.90;;;;;;6273087;22;20526;-79
2022/01/08 07:26:55;;;;;;;1999.90;314.00;;;2.00;99.90;;;;;;6264407;22;20428;-79
2022/01/08 07:29:29;;;;;;;1999.90;545.77;;;1.90;99.90;;;;;;6290517;22;20400;-79
2022/01/08 07:31:58;;;;;;;1997.43;306.50;;;1.80;99.90;;;;;;6264907;22;20462;-79
2022/01/08 07:34:27;;;;;;;1999.90;313.33;;;1.80;99.90;;;;;;6264861;22;20432;-79
2022/01/08 07:36:59;;;;;;;1732.67;242.37;;;1.80;99.90;;;;;;6265508;22;20439;-79
2022/01/08 07:39:27;;;;;;;1914.60;261.10;;;1.80;99.90;;;;;;6291302;22;20414;-79
2022/01/08 07:41:58;;;;;;;1999.90;386.53;;;1.70;99.90;;;;;;6263966;22;20408;-78
2022/01/08 07:44:27;;;;;;;1999.90;395.57;;;1.70;99.90;;;;;;6263685;22;20935;-79
2022/01/08 07:47:04;;;;;;;1892.13;282.43;;;1.70;99.90;;;;;;6291500;22;20420;-79
2022/01/08 07:49:32;;;;;;;1617.80;231.50;;;1.70;99.90;;;;;;6265221;22;20443;-78
2022/01/08 07:52:05;;;;;;;1999.90;599.33;;;1.70;99.90;;;;;;6301451;22;20403;-79
2022/01/08 07:54:33;;;;;;;1552.70;217.87;;;1.70;99.90;;;;;;6264439;22;20459;-79
2022/01/08 07:57:01;;;;;;;1907.83;365.50;;;1.70;99.90;;;;;;6263471;22;20500;-78
2022/01/08 07:59:31;;;;;;;1999.90;433.27;;;1.60;99.90;;;;;;6301195;22;20792;-78
2022/01/08 08:02:02;;;;;;;1999.90;335.53;;;1.70;99.90;;;;;;6288988;22;20427;-79
2022/01/08 08:04:33;;;;;;;1814.87;249.33;;;1.70;99.90;;;;;;6263847;22;20448;-78
2022/01/08 08:07:03;;;;;;;1981.77;364.73;;;1.60;99.90;;;;;;6263385;22;20480;-78
2022/01/08 08:09:31;;;;;;;1999.90;399.77;;;1.60;99.90;;;;;;6265386;22;20451;-78
2022/01/08 08:12:07;;;;;;;1999.90;386.57;;;1.70;99.90;;;;;;6263825;22;20412;-79
2022/01/08 08:14:45;;;;;;;1999.90;299.50;;;1.60;99.90;;;;;;6291257;22;20455;-79
2022/01/08 08:17:24;;;;;;;1933.13;217.40;;;1.60;99.90;;;;;;6263303;22;20414;-79
2022/01/08 08:19:53;;;;;;;1999.90;630.10;;;1.70;99.90;;;;;;6257017;22;20444;-79
2022/01/08 08:22:26;;;;;;;1999.90;409.10;;;1.60;99.90;;;;;;6256964;22;20427;-79
2022/01/08 08:24:56;;;;;;;1999.90;681.30;;;1.60;99.90;;;;;;6256675;22;20437;-78
2022/01/08 08:27:24;;;;;;;1999.90;336.53;;;1.70;99.90;;;;;;6256835;22;20432;-79
2022/01/08 08:29:54;;;;;;;1999.90;336.37;;;1.70;99.90;;;;;;6257128;22;20415;-78
2022/01/08 08:32:23;;;;;;;1999.90;406.33;;;1.70;99.90;;;;;;6294545;22;20848;-79
2022/01/08 08:34:59;;;;;;;1999.90;408.40;;;1.70;99.90;;;;;;6256885;22;20429;-78
2022/01/08 08:37:29;;;;;;;1999.90;406.93;;;1.80;99.90;;;;;;6256594;22;20410;-79
2022/01/08 08:39:57;;;;;;;1999.90;397.97;;;1.70;99.90;;;;;;6257307;22;20440;-79
2022/01/08 08:42:26;;;;;;;1999.90;397.17;;;1.80;99.90;;;;;;6256359;22;20409;-79
2022/01/08 08:44:54;;;;;;;1984.70;367.93;;;1.80;99.90;;;;;;6257007;22;20436;-79
2022/01/08 08:47:27;;;;;;;1999.90;434.17;;;1.70;99.90;;;;;;6257463;22;20949;-80
2022/01/08 08:49:57;;;;;;;1999.90;449.13;;;1.80;99.90;;;;;;6256063;22;20447;-79
2022/01/08 08:52:27;;;;;;;1999.90;448.87;;;1.80;99.90;;;;;;6280388;22;21018;-78
2022/01/08 08:54:58;;;;;;;1999.90;422.90;;;1.80;99.90;;;;;;6254423;22;20435;-78
2022/01/08 08:57:31;;;;;;;1999.90;404.30;;;1.80;99.90;;;;;;6292797;22;20374;-79
2022/01/08 08:59:59;;;;;;;1999.90;437.90;;;1.90;99.90;;;;;;6254534;22;20420;-78
2022/01/08 09:02:27;;;;;;;1999.90;414.77;;;1.90;99.90;;;;;;6254540;22;20471;-79
2022/01/08 09:04:55;;;;;;;1999.90;408.17;;;1.90;99.90;;;;;;6254508;22;20434;-78
2022/01/08 09:07:27;;;;;;;1999.90;452.13;;;1.90;99.90;;;;;;6282577;22;20426;-78
2022/01/08 09:09:55;;;;;;;1999.90;460.03;;;2.00;99.90;;;;;;6255245;22;20440;-79
2022/01/08 09:12:24;;;;;;;1999.90;463.00;;;2.00;99.90;;;;;;6283347;22;20492;-79
2022/01/08 09:14:53;;;;;;;1999.90;378.33;;;2.00;99.90;;;;;;6255452;22;20443;-79
2022/01/08 09:17:21;;;;;;;1999.90;608.50;;;2.00;99.90;;;;;;6292964;22;20398;-79
2022/01/08 09:19:50;;;;;;;1999.90;466.83;;;2.10;99.90;;;;;;6253921;22;20431;-78
2022/01/08 09:22:19;;;;;;;1999.90;413.27;;;2.10;99.90;;;;;;6254271;22;20417;-78
2022/01/08 09:24:47;;;;;;;1999.90;808.00;;;2.20;99.90;;;;;;6290863;22;20413;-79
2022/01/08 09:27:16;;;;;;;1999.90;653.00;;;2.20;99.90;;;;;;6254281;22;20507;-78
2022/01/08 09:29:45;;;;;;;1999.90;502.87;;;2.20;99.90;;;;;;6291854;22;20395;-79
2022/01/08 09:32:13;;;;;;;1999.90;460.50;;;2.20;99.90;;;;;;6280620;22;20456;-78
2022/01/08 09:34:42;;;;;;;1999.90;591.27;;;2.30;99.90;;;;;;6254620;22;20440;-79
2022/01/08 09:37:11;;;;;;;1999.90;764.20;;;2.30;99.90;;;;;;6291970;22;20395;-78
2022/01/08 09:39:40;;;;;;;1999.90;755.13;;;2.30;99.90;;;;;;6293219;22;20421;-79
2022/01/08 09:42:09;;;;;;;1999.90;718.97;;;2.30;99.90;;;;;;6281704;22;20899;-78
2022/01/08 09:44:39;;;;;;;1999.90;809.03;;;2.30;99.90;;;;;;6254803;22;20475;-78
2022/01/08 09:47:09;;;;;;;1999.90;748.03;;;2.40;99.90;;;;;;6254113;22;20414;-78
2022/01/08 09:49:38;;;;;;;1999.90;370.63;;;2.40;99.90;;;;;;6280666;22;20437;-78
2022/01/08 09:52:08;;;;;;;1999.90;871.47;;;2.40;99.90;;;;;;6253042;22;20961;-79
2022/01/08 09:54:37;;;;;;;1999.90;690.37;;;2.40;99.90;;;;;;6251945;22;20436;-78
2022/01/08 09:57:06;;;;;;;1999.90;733.13;;;2.50;99.90;;;;;;6250831;22;20493;-78
2022/01/08 09:59:34;;;;;;;1999.90;695.43;;;2.50;99.90;;;;;;6288961;22;20898;-78
2022/01/08 10:02:04;;;;;;;1999.90;723.80;;;2.50;99.90;;;;;;6251557;22;20413;-78
2022/01/08 10:04:35;;;;;;;1999.90;741.43;;;2.50;99.90;;;;;;6278646;22;20831;-78
2022/01/08 10:07:17;;;;;;;1999.90;638.87;;;2.60;99.90;;;;;;6276660;22;20405;-77
2022/01/08 10:10:10;;;;;;;1999.90;496.27;;;2.60;99.90;;;;;;6289076;22;20414;-78
2022/01/08 10:12:42;;;;;;;1999.90;539.40;;;2.70;99.90;;;;;;6251083;22;20872;-78
2022/01/08 10:17:58;;;;;;;1999.90;887.50;;;2.70;99.90;;;;;;6276811;22;20432;-78
2022/01/08 10:20:36;;;;;;;1999.90;660.17;;;2.80;99.90;;;;;;6251357;22;20451;-77
2022/01/08 10:23:14;;;;;;;1999.90;697.83;;;2.80;99.90;;;;;;6251389;22;20425;-78
2022/01/08 10:25:44;;;;;;;1999.90;485.80;;;2.90;99.90;;;;;;6277538;22;20447;-78
2022/01/08 10:28:12;;;;;;;1999.90;495.67;;;2.90;99.90;;;;;;6251365;22;20528;-78
2022/01/08 10:30:40;;;;;;;1999.90;525.33;;;2.90;99.90;;;;;;6276583;22;20409;-78
2022/01/08 10:33:08;;;;;;;1999.90;437.70;;;3.00;99.90;;;;;;6250688;22;21011;-78
2022/01/08 10:35:49;;;;;;;1999.90;478.80;;;3.00;99.90;;;;;;6250953;22;20426;-78
2022/01/08 10:38:18;;;;;;;1999.90;369.30;;;3.00;99.90;;;;;;6250849;22;20745;-78
2022/01/08 10:40:46;;;;;;;1999.90;610.67;;;3.00;99.90;;;;;;6251170;22;20417;-78
2022/01/08 10:43:25;;;;;;;1999.90;999.90;;;3.10;99.90;;;;;;6251571;22;20442;-79
2022/01/08 10:45:55;;;;;;;1999.90;999.90;;;3.10;99.90;;;;;;6288957;22;20393;-78
2022/01/08 10:48:31;;;;;;;1999.90;615.77;;;3.10;99.90;;;;;;6289026;22;20803;-78
2022/01/08 10:51:16;;;;;;;1999.90;623.13;;;3.20;99.90;;;;;;6251956;22;20442;-78
2022/01/08 10:53:57;;;;;;;1999.90;476.90;;;3.20;99.90;;;;;;6252948;22;20811;-79
2022/01/08 10:56:28;;;;;;;1999.90;585.57;;;3.20;99.90;;;;;;6252402;22;20412;-78
2022/01/08 10:59:01;;;;;;;1999.90;591.73;;;3.30;99.90;;;;;;6252324;22;20499;-78
2022/01/08 11:01:47;;;;;;;1999.90;797.77;;;3.30;99.90;;;;;;6252441;22;20398;-78
2022/01/08 11:04:18;;;;;;;1999.90;347.47;;;3.40;99.90;;;;;;6252814;22;20433;-78
2022/01/08 11:06:57;;;;;;;1999.90;808.13;;;3.40;99.90;;;;;;6252948;22;20416;-79
2022/01/08 11:09:29;;;;;;;1999.90;335.60;;;3.40;99.90;;;;;;6252725;22;20429;-78
2022/01/08 11:11:59;;;;;;;1999.90;999.90;;;3.50;99.90;;;;;;6280325;22;20393;-78
2022/01/08 11:17:31;;;;;;;1999.90;784.83;;;3.60;99.90;;;;;;6251691;22;20913;-78
2022/01/08 11:20:03;;;;;;;1999.90;548.23;;;3.60;99.90;;;;;;6252691;22;20417;-78
2022/01/08 11:22:34;;;;;;;1999.90;544.73;;;3.60;99.90;;;;;;6253945;22;20917;-78
2022/01/08 11:25:06;;;;;;;1999.90;999.90;;;3.70;99.90;;;;;;6252384;22;20528;-78
2022/01/08 11:27:41;;;;;;;1999.90;999.90;;;3.70;99.90;;;;;;6296447;22;20382;-79
2022/01/08 11:30:17;;;;;;;1999.90;999.90;;;3.70;99.90;;;;;;6258551;22;20427;-79
2022/01/08 11:32:46;;;;;;;1999.90;999.90;;;3.80;99.90;;;;;;6278733;22;20417;-78
2022/01/08 11:35:35;;;;;;;1999.90;999.90;;;3.80;99.90;;;;;;6253141;22;20417;-79
2022/01/08 11:38:07;;;;;;;1999.90;999.90;;;3.80;99.90;;;;;;6252748;22;20420;-79
2022/01/08 11:40:37;;;;;;;1960.47;541.50;;;3.80;99.90;;;;;;6253156;22;20401;-78
2022/01/08 11:43:08;;;;;;;1948.03;521.13;;;3.90;99.90;;;;;;6253988;22;20437;-78
2022/01/08 11:45:39;;;;;;;1876.43;755.70;;;3.90;99.90;;;;;;6252971;22;20419;-78
2022/01/08 11:48:11;;;;;;;1999.90;999.90;;;3.90;99.90;;;;;;6280511;22;20764;-78
2022/01/08 11:50:50;;;;;;;1999.90;999.90;;;3.90;99.90;;;;;;6280208;22;20448;-78
2022/01/08 11:53:24;;;;;;;1955.70;757.90;;;3.90;99.90;;;;;;6228798;22;20471;-79
2022/01/08 11:55:56;;;;;;;1999.90;999.90;;;3.90;99.90;;;;;;6255147;22;20409;-78
2022/01/08 11:58:27;;;;;;;1999.90;999.90;;;3.90;99.90;;;;;;6255017;22;20480;-79
2022/01/08 12:00:59;;;;;;;1999.90;999.90;;;4.00;99.90;;;;;;6255534;22;20877;-79
2022/01/08 12:03:39;;;;;;;1919.80;495.80;;;4.00;99.90;;;;;;6229328;22;20469;-78
2022/01/08 12:06:37;;;;;;;1999.90;999.90;;;4.00;99.90;;;;;;6254841;22;20503;-78
2022/01/08 12:09:21;;;;;;;1999.90;999.90;;;4.00;99.90;;;;;;6254724;22;20451;-78
2022/01/08 12:12:00;;;;;;;1999.90;999.90;;;4.00;99.90;;;;;;6254689;22;20423;-78
2022/01/08 12:14:44;;;;;;;1999.90;999.90;;;4.10;99.90;;;;;;6254150;22;20514;-78
2022/01/08 12:17:17;;;;;;;1999.90;999.90;;;4.10;99.90;;;;;;6254357;22;20412;-78
2022/01/08 12:19:46;;;;;;;1541.50;476.00;;;4.10;99.90;;;;;;6254228;22;20416;-78
2022/01/08 12:22:30;;;;;;;1999.90;999.90;;;4.10;99.90;;;;;;6254042;22;20821;-78
2022/01/08 12:25:02;;;;;;;1999.90;999.90;;;4.20;99.90;;;;;;6281906;22;20447;-78
2022/01/08 12:27:40;;;;;;;1999.90;999.90;;;4.20;99.90;;;;;;6281518;22;20397;-78
2022/01/08 12:30:37;;;;;;;1999.90;999.90;;;4.20;99.90;;;;;;6253953;22;20433;-78
2022/01/08 12:33:18;;;;;;;1999.90;999.90;;;4.20;99.90;;;;;;6254686;22;20436;-78
2022/01/08 12:35:50;;;;;;;1999.90;999.90;;;4.30;99.90;;;;;;6254692;22;20471;-79
2022/01/08 12:38:29;;;;;;;1999.90;999.90;;;4.30;99.90;;;;;;6254163;22;20440;-78
2022/01/08 12:40:59;;;;;;;1999.90;999.90;;;4.30;99.90;;;;;;6253991;22;20396;-78
2022/01/08 12:43:33;;;;;;;1999.90;999.90;;;4.30;99.90;;;;;;6254884;22;20436;-78
2022/01/08 12:46:20;;;;;;;1999.90;999.90;;;4.30;99.90;;;;;;6254363;22;20484;-78
2022/01/08 12:49:13;;;;;;;1586.97;438.73;;;4.40;99.90;;;;;;6254595;22;20405;-79
2022/01/08 12:52:09;;;;;;;1999.90;999.90;;;4.30;99.90;;;;;;6280780;22;20405;-78
2022/01/08 12:54:43;;;;;;;1999.90;999.90;;;4.30;99.90;;;;;;6280699;22;20508;-78
2022/01/08 12:57:16;;;;;;;1999.90;999.90;;;4.30;99.90;;;;;;6259193;22;20452;-78
2022/01/08 12:59:49;;;;;;;1999.90;999.90;;;4.30;99.90;;;;;;6301594;22;20456;-78
2022/01/08 13:02:17;;;;;;;1532.43;209.53;;;4.30;99.90;;;;;;6259040;22;20430;-82
2022/01/08 13:04:53;;;;;;;1999.90;999.90;;;4.40;99.90;;;;;;6280062;22;20946;-78
2022/01/08 13:07:21;;;;;;;1999.90;999.90;;;4.40;99.90;;;;;;6255071;22;20411;-79
2022/01/08 13:10:04;;;;;;;1999.90;999.90;;;4.40;99.90;;;;;;6279663;22;20528;-78
2022/01/08 13:12:34;;;;;;;1999.90;999.90;;;4.40;99.90;;;;;;6292149;22;20369;-79
2022/01/08 13:15:03;;;;;;;1999.90;999.90;;;4.40;99.90;;;;;;6291703;22;20793;-78
2022/01/08 13:17:32;;;;;;;1999.90;999.90;;;4.50;99.90;;;;;;6254652;22;20412;-78
2022/01/08 13:20:05;;;;;;;1999.90;999.90;;;4.40;99.90;;;;;;6281547;22;20419;-79
2022/01/08 13:22:37;;;;;;;1999.90;999.90;;;4.50;99.90;;;;;;6254369;22;20432;-79
2022/01/08 13:25:10;;;;;;;1999.90;999.90;;;4.50;99.90;;;;;;6291720;22;20457;-78
2022/01/08 13:27:40;;;;;;;1999.90;999.90;;;4.40;99.90;;;;;;6254734;22;20416;-78
2022/01/08 13:30:11;;;;;;;1999.90;999.90;;;4.50;99.90;;;;;;6253961;22;20482;-79
2022/01/08 13:32:39;;;;;;;1999.90;999.90;;;4.40;99.90;;;;;;6253616;22;20412;-79
2022/01/08 13:35:08;;;;;;;1999.90;999.90;;;4.40;99.90;;;;;;6290880;22;20428;-79
2022/01/08 13:37:36;;;;;;;1534.83;441.57;;;4.40;99.90;;;;;;6254641;22;20416;-79
2022/01/08 13:40:09;;;;;;;1999.90;999.90;;;4.40;99.90;;;;;;6254097;22;20492;-78
2022/01/08 13:42:40;;;;;;;1999.90;999.90;;;4.40;99.90;;;;;;6254459;22;20463;-79
2022/01/08 13:45:14;;;;;;;1999.90;999.90;;;4.30;99.90;;;;;;6253882;22;20405;-78
2022/01/08 13:47:47;;;;;;;1999.90;999.90;;;4.30;99.90;;;;;;6254298;22;20814;-78
2022/01/08 13:50:21;;;;;;;1999.90;999.90;;;4.30;99.90;;;;;;6252913;22;20440;-78
2022/01/08 13:52:56;;;;;;;1999.90;999.90;;;4.20;99.90;;;;;;6254708;22;20411;-79
2022/01/08 13:55:26;;;;;;;1999.90;999.90;;;4.20;99.90;;;;;;6253579;22;20789;-79
2022/01/08 13:58:15;;;;;;;1999.90;999.90;;;4.20;99.90;;;;;;6291010;22;20424;-78
2022/01/08 14:00:45;;;;;;;1999.90;999.90;;;4.20;99.90;;;;;;6253674;22;20401;-78
2022/01/08 14:03:21;;;;;;;1999.90;999.90;;;4.00;99.90;;;;;;6252649;22;20843;-78
2022/01/08 14:05:54;;;;;;;1999.90;999.90;;;4.10;99.90;;;;;;6278284;22;20408;-78
2022/01/08 14:08:23;;;;;;;1999.90;999.90;;;4.10;99.90;;;;;;6281037;22;20415;-78
2022/01/08 14:10:59;;;;;;;1999.90;999.90;;;4.00;99.90;;;;;;6279204;22;20432;-80
2022/01/08 14:13:34;;;;;;;1999.90;999.90;;;4.10;99.90;;;;;;6290859;22;20415;-78
2022/01/08 14:16:05;;;;;;;1999.90;999.90;;;4.00;99.90;;;;;;6253243;22;20409;-78
2022/01/08 14:18:37;;;;;;;1999.90;999.90;;;4.00;99.90;;;;;;6253291;22;20547;-79
2022/01/08 14:21:13;;;;;;;1999.90;999.90;;;3.90;99.90;;;;;;6290223;22;20384;-78
2022/01/08 14:23:41;;;;;;;1687.93;716.00;;;3.90;99.90;;;;;;6253288;22;20472;-78
2022/01/08 14:26:13;;;;;;;1999.90;999.90;;;3.90;99.90;;;;;;6252486;22;20488;-78
2022/01/08 14:28:44;;;;;;;1999.90;999.90;;;3.80;99.90;;;;;;6256019;22;20411;-78
2022/01/08 14:31:17;;;;;;;1999.90;999.90;;;3.80;99.90;;;;;;6253019;22;20428;-78
2022/01/08 14:34:05;;;;;;;1999.90;999.90;;;3.80;99.90;;;;;;6251977;22;20441;-78
2022/01/08 14:36:45;;;;;;;1999.90;999.90;;;3.80;99.90;;;;;;6252726;22;20410;-78
2022/01/08 14:39:14;;;;;;;1999.90;999.90;;;3.80;99.90;;;;;;6251667;22;20510;-78
2022/01/08 14:41:45;;;;;;;1999.90;999.90;;;3.80;99.90;;;;;;6252983;22;20405;-78
2022/01/08 14:44:15;;;;;;;1999.90;999.90;;;3.80;99.90;;;;;;6289861;22;20413;-78
2022/01/08 14:46:48;;;;;;;1999.90;999.90;;;3.80;99.90;;;;;;6253228;22;20416;-78
2022/01/08 14:49:17;;;;;;;1999.90;999.90;;;3.70;99.90;;;;;;6253109;22;20415;-78
2022/01/08 14:51:45;;;;;;;1999.90;999.90;;;3.70;99.90;;;;;;6289098;22;20535;-78
2022/01/08 14:54:14;;;;;;;1999.90;999.90;;;3.70;99.90;;;;;;6252162;22;20971;-78
2022/01/08 14:56:44;;;;;;;1999.90;999.90;;;3.70;99.90;;;;;;6252196;22;20493;-78
2022/01/08 14:59:12;;;;;;;1999.90;999.90;;;3.70;99.90;;;;;;6252658;22;20441;-78
2022/01/08 15:01:42;;;;;;;1999.90;999.90;;;3.70;99.90;;;;;;6252634;22;20500;-78
2022/01/08 15:04:10;;;;;;;1999.90;999.90;;;3.70;99.90;;;;;;6279658;22;20443;-78
2022/01/08 15:06:38;;;;;;;1999.90;999.90;;;3.70;99.90;;;;;;6253365;22;20515;-78
2022/01/08 15:09:07;;;;;;;1999.90;999.90;;;3.60;99.90;;;;;;6279087;22;20439;-79
2022/01/08 15:11:35;;;;;;;1999.90;999.90;;;3.70;99.90;;;;;;6252597;22;20439;-78
2022/01/08 15:14:04;;;;;;;1999.90;999.90;;;3.60;99.90;;;;;;6252584;22;20488;-78
2022/01/08 15:16:36;;;;;;;1999.90;999.90;;;3.60;99.90;;;;;;6253582;22;20411;-78
2022/01/08 15:19:05;;;;;;;1999.90;999.90;;;3.60;99.90;;;;;;6253844;22;20180;-80
2022/01/08 15:21:34;;;;;;;1999.90;999.90;;;3.60;99.90;;;;;;6254013;22;20412;-79
2022/01/08 15:24:02;;;;;;;363.02;93.63;;;3.60;99.90;;;;;;6278874;22;20402;-79
2022/01/08 15:26:31;;;;;;;395.73;79.23;;;3.70;99.90;;;;;;6251409;22;20257;-78
2022/01/08 15:29:00;;;;;;;1999.90;999.90;;;3.70;99.90;;;;;;6252317;22;20516;-78
2022/01/08 15:31:28;;;;;;;1883.57;727.87;;;3.60;99.90;;;;;;6252607;22;20493;-77
2022/01/08 15:33:56;;;;;;;1999.90;999.90;;;3.60;99.90;;;;;;6278609;22;20427;-78
2022/01/08 15:36:25;;;;;;;1641.10;702.13;;;3.60;99.90;;;;;;6252427;22;20430;-78
2022/01/08 15:38:54;;;;;;;1674.27;495.07;;;3.60;99.90;;;;;;6253112;22;20967;-77
2022/01/08 15:41:22;;;;;;;1999.90;999.90;;;3.60;99.90;;;;;;6289936;22;20427;-78
2022/01/08 15:43:54;;;;;;;1999.90;999.90;;;3.60;99.90;;;;;;6252728;22;20505;-78
2022/01/08 15:46:22;;;;;;;1999.90;999.90;;;3.70;99.90;;;;;;6290132;22;20740;-78
2022/01/08 15:48:50;;;;;;;1999.90;999.90;;;3.70;99.90;;;;;;6290596;22;20800;-78
2022/01/08 15:51:18;;;;;;;1999.90;999.90;;;3.60;99.90;;;;;;6253171;22;20846;-78
2022/01/08 15:53:49;;;;;;;1999.90;999.90;;;3.60;99.90;;;;;;6253150;22;20432;-78
2022/01/08 15:56:17;;;;;;;1999.90;999.90;;;3.60;99.90;;;;;;6254405;22;20457;-78
2022/01/08 15:58:45;;;;;;;1999.90;999.90;;;3.60;99.90;;;;;;6252296;22;20438;-78
2022/01/08 16:01:14;;;;;;;1999.90;999.90;;;3.60;99.90;;;;;;6252426;22;20443;-78
2022/01/08 16:03:42;;;;;;;1623.07;703.83;;;3.60;99.90;;;;;;6280184;22;20457;-78
2022/01/08 16:06:11;;;;;;;1999.90;999.90;;;3.60;99.90;;;;;;6290077;22;20425;-78
2022/01/08 16:08:40;;;;;;;1999.90;999.90;;;3.60;99.90;;;;;;6253039;22;20422;-78
2022/01/08 16:11:09;;;;;;;1999.90;999.90;;;3.60;99.90;;;;;;6253063;22;20523;-78
2022/01/08 16:13:38;;;;;;;1999.90;999.90;;;3.60;99.90;;;;;;6253062;22;20526;-78
2022/01/08 16:16:06;;;;;;;1999.90;999.90;;;3.50;99.90;;;;;;6252948;22;20503;-78
2022/01/08 16:18:34;;;;;;;1999.90;999.90;;;3.50;99.90;;;;;;6280031;22;20503;-78
2022/01/08 16:21:06;;;;;;;1999.90;999.90;;;3.60;99.90;;;;;;6253351;22;20483;-78
2022/01/08 16:23:34;;;;;;;1999.90;999.90;;;3.60;99.90;;;;;;6252331;22;20440;-78
2022/01/08 16:26:02;;;;;;;1999.90;999.90;;;3.50;99.90;;;;;;6290367;22;20403;-79
2022/01/08 16:28:32;;;;;;;1999.90;999.90;;;3.60;99.90;;;;;;6252974;22;20459;-78
2022/01/08 16:31:00;;;;;;;1999.90;999.90;;;3.60;99.90;;;;;;6290868;22;20973;-78
2022/01/08 16:33:29;;;;;;;1999.90;999.90;;;3.60;99.90;;;;;;6279928;22;20429;-78
2022/01/08 16:35:57;;;;;;;1999.90;999.90;;;3.50;99.90;;;;;;6252974;22;20511;-78
2022/01/08 16:38:25;;;;;;;1999.90;999.90;;;3.60;99.90;;;;;;6293093;22;20400;-78
2022/01/08 16:40:54;;;;;;;1999.90;999.90;;;3.60;99.90;;;;;;6257786;22;20446;-78
2022/01/08 16:43:23;;;;;;;1999.90;999.90;;;3.50;99.90;;;;;;6256281;22;20431;-79
2022/01/08 16:45:53;;;;;;;1999.90;999.90;;;3.60;99.90;;;;;;6257001;22;20413;-78
2022/01/08 16:48:21;;;;;;;1916.60;446.20;;;3.60;99.90;;;;;;6255954;22;20472;-79
2022/01/08 16:50:50;;;;;;;1999.90;999.90;;;3.60;99.90;;;;;;6279093;22;20415;-78
2022/01/08 16:53:18;;;;;;;1999.90;999.90;;;3.60;99.90;;;;;;6290788;22;20460;-78
2022/01/08 16:55:46;;;;;;;1999.90;999.90;;;3.60;99.90;;;;;;6252734;22;20412;-78
2022/01/08 16:58:14;;;;;;;1999.90;999.90;;;3.60;99.90;;;;;;6280537;22;20432;-78
2022/01/08 17:00:43;;;;;;;1398.37;399.10;;;3.60;99.90;;;;;;6254727;22;20454;-79
2022/01/08 17:03:13;;;;;;;1999.90;999.90;;;3.60;99.90;;;;;;6293478;22;20799;-79